Time;durP1;ratioP1;P1;durP2;ratioP2;P2;SDS_P1;SDS_P2;PMS_P1;PMS_P2;Temp;Humidity;BMP_temperature;BMP_pressure;BME280_temperature;BME280_humidity;BME280_pressure;Samples;Min_cycle;Max_cycle;Signal;HPM_P1;HPM_P2
2020/12/08 00:01:53;;;;;;;7.55;5.38;;;6.70;99.90;;;;;;5112350;28;20197;-72
2020/12/08 00:04:21;;;;;;;6.20;5.30;;;6.70;99.90;;;;;;5113239;28;20216;-73
2020/12/08 00:06:47;;;;;;;6.18;5.47;;;6.70;99.90;;;;;;5114395;27;20632;-73
2020/12/08 00:09:13;;;;;;;8.18;5.85;;;6.70;99.90;;;;;;5112136;28;20640;-73
2020/12/08 00:11:39;;;;;;;5.25;4.60;;;6.60;99.90;;;;;;5111864;28;20200;-73
2020/12/08 00:14:05;;;;;;;5.90;4.68;;;6.60;99.90;;;;;;5112005;28;20200;-73
2020/12/08 00:16:32;;;;;;;4.93;4.30;;;6.60;99.90;;;;;;5112643;28;20204;-73
2020/12/08 00:18:58;;;;;;;5.63;4.85;;;6.60;99.90;;;;;;5117731;28;20204;-73
2020/12/08 00:21:25;;;;;;;4.57;4.18;;;6.50;99.90;;;;;;5123515;27;20192;-73
2020/12/08 00:23:51;;;;;;;6.50;5.78;;;6.50;99.90;;;;;;5111775;28;20216;-73
2020/12/08 00:26:17;;;;;;;6.63;5.40;;;6.50;99.90;;;;;;5111896;28;20544;-73
2020/12/08 00:28:44;;;;;;;4.25;3.85;;;6.50;99.90;;;;;;5112247;28;20204;-73
2020/12/08 00:31:10;;;;;;;6.13;5.53;;;6.50;99.90;;;;;;5115252;28;20203;-73
2020/12/08 00:33:36;;;;;;;5.18;4.43;;;6.50;99.90;;;;;;5120479;28;20187;-73
2020/12/08 00:36:03;;;;;;;6.10;5.50;;;6.40;99.90;;;;;;5118724;27;20229;-73
2020/12/08 00:38:30;;;;;;;8.13;4.78;;;6.40;99.90;;;;;;5112140;28;20220;-73
2020/12/08 00:40:56;;;;;;;4.68;4.10;;;6.40;99.90;;;;;;5112948;28;20193;-74
2020/12/08 00:43:22;;;;;;;6.35;5.45;;;6.40;99.90;;;;;;5111762;28;20224;-73
2020/12/08 00:45:49;;;;;;;4.97;4.20;;;6.40;99.90;;;;;;5115611;27;20208;-73
2020/12/08 00:48:15;;;;;;;4.05;3.65;;;6.40;99.90;;;;;;5136043;27;20207;-73
2020/12/08 00:50:41;;;;;;;7.22;6.00;;;6.40;99.90;;;;;;5132836;27;20205;-73
2020/12/08 00:53:07;;;;;;;5.38;4.45;;;6.40;99.90;;;;;;5125148;27;20189;-74
2020/12/08 00:55:34;;;;;;;5.47;4.97;;;6.40;99.90;;;;;;5128081;27;20207;-73
2020/12/08 00:58:01;;;;;;;5.18;4.68;;;6.40;99.90;;;;;;5115518;28;20192;-74
2020/12/08 01:00:27;;;;;;;5.50;4.68;;;6.40;99.90;;;;;;5115673;28;20201;-73
2020/12/08 01:02:53;;;;;;;5.40;4.90;;;6.40;99.90;;;;;;5115267;28;20575;-73
2020/12/08 01:05:19;;;;;;;6.15;4.80;;;6.40;99.90;;;;;;5124341;27;20207;-74
2020/12/08 01:07:46;;;;;;;5.43;4.90;;;6.30;99.90;;;;;;5117848;27;20192;-73
2020/12/08 01:10:12;;;;;;;5.28;4.78;;;6.30;99.90;;;;;;5115524;27;20197;-73
2020/12/08 01:12:39;;;;;;;4.40;4.00;;;6.30;99.90;;;;;;5115465;27;20193;-73
2020/12/08 01:15:06;;;;;;;4.70;4.13;;;6.30;99.90;;;;;;5115271;28;20197;-73
2020/12/08 01:17:33;;;;;;;6.38;4.63;;;6.30;99.90;;;;;;5131659;27;20265;-73
2020/12/08 01:19:59;;;;;;;5.75;4.35;;;6.30;99.90;;;;;;5135350;27;20320;-73
2020/12/08 01:22:25;;;;;;;6.95;4.85;;;6.30;99.90;;;;;;5123815;27;20509;-72
2020/12/08 01:24:51;;;;;;;4.45;4.05;;;6.30;99.90;;;;;;5126674;27;20196;-72
2020/12/08 01:27:17;;;;;;;5.47;4.88;;;6.30;99.90;;;;;;5121428;27;20193;-72
2020/12/08 01:29:45;;;;;;;4.50;4.10;;;6.30;99.90;;;;;;5115198;27;20200;-73
2020/12/08 01:32:11;;;;;;;4.47;4.03;;;6.30;99.90;;;;;;5115073;28;20200;-73
2020/12/08 01:34:37;;;;;;;4.28;3.88;;;6.30;99.90;;;;;;5123340;27;20195;-73
2020/12/08 01:37:04;;;;;;;5.57;4.13;;;6.30;99.90;;;;;;5133249;27;20551;-73
2020/12/08 01:39:30;;;;;;;4.60;4.20;;;6.30;99.90;;;;;;5129979;27;20890;-73
2020/12/08 01:41:57;;;;;;;5.78;4.30;;;6.30;99.90;;;;;;5135461;27;20200;-73
2020/12/08 01:44:23;;;;;;;5.65;4.55;;;6.30;99.90;;;;;;5133274;27;20219;-73
2020/12/08 01:46:51;;;;;;;4.68;4.25;;;6.30;99.90;;;;;;5135215;27;20196;-73
2020/12/08 01:49:18;;;;;;;4.28;3.97;;;6.20;99.90;;;;;;5127341;27;20200;-73
2020/12/08 01:51:44;;;;;;;6.40;4.95;;;6.30;99.90;;;;;;5131949;27;20201;-73
2020/12/08 01:54:11;;;;;;;4.80;4.25;;;6.30;99.90;;;;;;5134948;27;20200;-73
2020/12/08 01:56:38;;;;;;;5.38;4.85;;;6.30;99.90;;;;;;5134057;27;20185;-73
2020/12/08 01:59:04;;;;;;;6.60;4.60;;;6.30;99.90;;;;;;5133584;27;20252;-73
2020/12/08 02:01:31;;;;;;;4.65;4.10;;;6.20;99.90;;;;;;5134882;27;20203;-73
2020/12/08 02:03:58;;;;;;;5.03;4.60;;;6.20;99.90;;;;;;5129193;27;20207;-73
2020/12/08 02:06:25;;;;;;;4.63;4.13;;;6.20;99.90;;;;;;5118620;27;20196;-73
2020/12/08 02:08:52;;;;;;;4.82;4.35;;;6.20;99.90;;;;;;5129296;27;20291;-73
2020/12/08 02:11:19;;;;;;;4.18;3.67;;;6.20;99.90;;;;;;5115581;27;20228;-73
2020/12/08 02:13:45;;;;;;;4.20;3.80;;;6.20;99.90;;;;;;5129402;27;20215;-73
2020/12/08 02:16:11;;;;;;;4.32;4.03;;;6.20;99.90;;;;;;5129681;27;20197;-73
2020/12/08 02:18:37;;;;;;;4.20;3.80;;;6.20;99.90;;;;;;5113677;28;20203;-73
2020/12/08 02:21:05;;;;;;;5.10;3.25;;;6.20;99.90;;;;;;5115379;27;20192;-73
2020/12/08 02:23:32;;;;;;;5.00;4.50;;;6.20;99.90;;;;;;5114057;28;20220;-73
2020/12/08 02:26:00;;;;;;;4.95;4.15;;;6.30;99.90;;;;;;5114608;27;21066;-73
2020/12/08 02:28:26;;;;;;;4.00;3.70;;;6.30;99.90;;;;;;5132722;27;20199;-73
2020/12/08 02:30:53;;;;;;;4.43;4.03;;;6.30;99.90;;;;;;5120915;27;20196;-72
2020/12/08 02:33:22;;;;;;;4.50;4.10;;;6.20;99.90;;;;;;5118714;27;20193;-72
2020/12/08 02:35:49;;;;;;;4.95;4.32;;;6.20;99.90;;;;;;5113636;28;20192;-73
2020/12/08 02:38:16;;;;;;;4.90;4.45;;;6.20;99.90;;;;;;5133461;27;20648;-72
2020/12/08 02:40:42;;;;;;;4.43;3.90;;;6.20;99.90;;;;;;5120612;27;20184;-72
2020/12/08 02:43:08;;;;;;;3.45;3.17;;;6.20;99.90;;;;;;5113206;27;20213;-72
2020/12/08 02:45:35;;;;;;;5.45;4.95;;;6.30;99.90;;;;;;5126654;27;20204;-73
2020/12/08 02:48:01;;;;;;;4.63;3.95;;;6.30;99.90;;;;;;5130872;27;20192;-72
2020/12/08 02:50:27;;;;;;;3.72;3.28;;;6.20;99.90;;;;;;5127194;27;20200;-72
2020/12/08 02:52:53;;;;;;;4.40;3.80;;;6.20;99.90;;;;;;5113679;28;20200;-73
2020/12/08 02:55:21;;;;;;;3.42;3.13;;;6.30;99.90;;;;;;5116423;27;20233;-72
2020/12/08 02:57:47;;;;;;;4.38;3.97;;;6.30;99.90;;;;;;5128402;27;20252;-73
2020/12/08 03:00:14;;;;;;;4.60;4.15;;;6.20;99.90;;;;;;5126392;27;20774;-73
2020/12/08 03:02:40;;;;;;;4.65;4.20;;;6.20;99.90;;;;;;5112635;28;20192;-74
2020/12/08 03:05:06;;;;;;;3.90;3.60;;;6.30;99.90;;;;;;5120328;27;20204;-73
2020/12/08 03:07:32;;;;;;;4.38;3.95;;;6.20;99.90;;;;;;5119799;27;20197;-74
2020/12/08 03:09:59;;;;;;;5.13;4.70;;;6.20;99.90;;;;;;5130098;27;20206;-73
2020/12/08 03:12:26;;;;;;;7.28;4.72;;;6.20;99.90;;;;;;5122319;27;20257;-73
2020/12/08 03:14:52;;;;;;;5.45;4.60;;;6.20;99.90;;;;;;5133505;27;20202;-74
2020/12/08 03:17:18;;;;;;;4.50;3.55;;;6.20;99.90;;;;;;5114371;27;20200;-73
2020/12/08 03:19:45;;;;;;;4.75;4.35;;;6.20;99.90;;;;;;5127389;27;20216;-73
2020/12/08 03:22:11;;;;;;;5.38;4.43;;;6.20;99.90;;;;;;5133742;27;20648;-73
2020/12/08 03:24:37;;;;;;;4.20;3.80;;;6.20;99.90;;;;;;5125781;27;20517;-73
2020/12/08 03:27:03;;;;;;;3.47;3.17;;;6.20;99.90;;;;;;5133249;27;20188;-74
2020/12/08 03:29:30;;;;;;;5.38;4.88;;;6.20;99.90;;;;;;5132108;27;20208;-74
2020/12/08 03:31:57;;;;;;;4.35;3.95;;;6.20;99.90;;;;;;5114357;27;20197;-74
2020/12/08 03:34:23;;;;;;;5.53;4.28;;;6.10;99.90;;;;;;5119986;27;20180;-74
2020/12/08 03:36:49;;;;;;;6.25;4.88;;;6.20;99.90;;;;;;5116707;27;20195;-74
2020/12/08 03:39:16;;;;;;;5.05;4.65;;;6.10;99.90;;;;;;5131729;27;20216;-73
2020/12/08 03:41:44;;;;;;;7.00;4.43;;;6.10;99.90;;;;;;5116510;27;20200;-73
2020/12/08 03:44:10;;;;;;;5.03;4.50;;;6.10;99.90;;;;;;5119467;27;20273;-74
2020/12/08 03:46:38;;;;;;;4.40;4.03;;;6.10;99.90;;;;;;5120884;27;20208;-73
2020/12/08 03:49:04;;;;;;;5.72;4.47;;;6.20;99.90;;;;;;5112463;28;20196;-74
2020/12/08 03:51:31;;;;;;;4.82;4.32;;;6.10;99.90;;;;;;5112658;28;20223;-73
2020/12/08 03:53:57;;;;;;;4.75;4.10;;;6.10;99.90;;;;;;5120538;27;20193;-72
2020/12/08 03:56:23;;;;;;;4.75;4.25;;;6.10;99.90;;;;;;5112528;28;20197;-72
2020/12/08 03:58:50;;;;;;;5.40;4.60;;;6.10;99.90;;;;;;5112208;28;20645;-73
2020/12/08 04:01:18;;;;;;;5.82;4.80;;;6.20;99.90;;;;;;5112443;28;20874;-73
2020/12/08 04:03:46;;;;;;;5.38;4.47;;;6.10;99.90;;;;;;5112321;28;20212;-73
2020/12/08 04:06:13;;;;;;;5.22;4.32;;;6.20;99.90;;;;;;5119604;28;20207;-73
2020/12/08 04:08:39;;;;;;;6.63;4.70;;;6.10;99.90;;;;;;5112205;28;20189;-73
2020/12/08 04:11:06;;;;;;;4.03;3.72;;;6.20;99.90;;;;;;5112076;28;20871;-73
2020/12/08 04:13:32;;;;;;;5.63;4.63;;;6.20;99.90;;;;;;5112044;28;20193;-73
2020/12/08 04:15:59;;;;;;;5.18;4.35;;;6.20;99.90;;;;;;5121854;28;20196;-73
2020/12/08 04:18:25;;;;;;;4.80;4.15;;;6.20;99.90;;;;;;5112238;27;20204;-73
2020/12/08 04:20:53;;;;;;;8.68;4.40;;;6.20;99.90;;;;;;5114722;28;20197;-73
2020/12/08 04:23:20;;;;;;;5.30;4.45;;;6.10;99.90;;;;;;5115996;28;20678;-73
2020/12/08 04:25:47;;;;;;;6.80;4.40;;;6.20;99.90;;;;;;5116333;27;20196;-73
2020/12/08 04:28:13;;;;;;;4.85;4.53;;;6.20;99.90;;;;;;5132960;27;20188;-72
2020/12/08 04:30:40;;;;;;;6.32;5.10;;;6.20;99.90;;;;;;5136025;27;20199;-72
2020/12/08 04:33:07;;;;;;;5.43;4.93;;;6.20;99.90;;;;;;5129025;27;20188;-72
2020/12/08 04:35:33;;;;;;;4.90;4.45;;;6.20;99.90;;;;;;5135952;27;20193;-72
2020/12/08 04:38:00;;;;;;;4.70;4.30;;;6.20;99.90;;;;;;5120768;27;20196;-72
2020/12/08 04:40:27;;;;;;;5.40;4.57;;;6.20;99.90;;;;;;5132768;27;20181;-72
2020/12/08 04:42:54;;;;;;;6.18;4.80;;;6.20;99.90;;;;;;5136248;27;20200;-73
2020/12/08 04:45:21;;;;;;;7.25;5.05;;;6.20;99.90;;;;;;5136936;27;20257;-73
2020/12/08 04:47:48;;;;;;;6.40;5.40;;;6.20;99.90;;;;;;5130075;27;20539;-73
2020/12/08 04:50:17;;;;;;;5.20;4.65;;;6.20;99.90;;;;;;5126782;27;20210;-72
2020/12/08 04:52:44;;;;;;;7.05;5.53;;;6.20;99.90;;;;;;5115870;27;20200;-72
2020/12/08 04:55:11;;;;;;;5.60;4.82;;;6.20;99.90;;;;;;5115544;28;20200;-72
2020/12/08 04:57:40;;;;;;;5.82;5.18;;;6.20;99.90;;;;;;5124804;27;20196;-72
2020/12/08 05:00:08;;;;;;;7.03;6.18;;;6.20;99.90;;;;;;5125398;27;20253;-72
2020/12/08 05:02:46;;;;;;;9.20;6.97;;;6.20;99.90;;;;;;5136276;27;20226;-72
2020/12/08 05:05:12;;;;;;;10.38;6.32;;;6.20;99.90;;;;;;5135952;27;20196;-72
2020/12/08 05:07:39;;;;;;;6.55;5.85;;;6.20;99.90;;;;;;5135833;27;20196;-72
2020/12/08 05:10:05;;;;;;;6.63;5.75;;;6.20;99.90;;;;;;5115464;27;20204;-72
2020/12/08 05:12:32;;;;;;;7.00;6.30;;;6.20;99.90;;;;;;5122888;27;20527;-71
2020/12/08 05:14:58;;;;;;;8.23;6.80;;;6.20;99.90;;;;;;5115327;28;20204;-72
2020/12/08 05:17:26;;;;;;;7.72;6.38;;;6.10;99.90;;;;;;5115119;28;20208;-72
2020/12/08 05:20:06;;;;;;;6.97;5.93;;;6.10;99.90;;;;;;5115264;27;20196;-72
2020/12/08 05:22:33;;;;;;;7.50;6.40;;;6.10;99.90;;;;;;5115228;28;20721;-72
2020/12/08 05:25:09;;;;;;;7.10;5.80;;;6.20;99.90;;;;;;5131984;27;20212;-72
2020/12/08 05:27:37;;;;;;;9.25;6.88;;;6.10;99.90;;;;;;5123344;27;20238;-73
2020/12/08 05:30:05;;;;;;;7.47;5.75;;;6.10;99.90;;;;;;5115078;27;20291;-73
2020/12/08 05:32:36;;;;;;;7.65;6.50;;;6.10;99.90;;;;;;5113434;28;20200;-73
2020/12/08 05:35:04;;;;;;;7.97;6.97;;;6.10;99.90;;;;;;5117704;27;20609;-72
2020/12/08 05:37:34;;;;;;;9.13;7.20;;;6.20;99.90;;;;;;5116226;27;20513;-73
2020/12/08 05:40:04;;;;;;;8.52;6.82;;;6.10;99.90;;;;;;5119299;27;20272;-73
2020/12/08 05:42:33;;;;;;;11.80;7.95;;;6.10;99.90;;;;;;5135004;27;20204;-73
2020/12/08 05:45:00;;;;;;;8.13;6.80;;;6.10;99.90;;;;;;5134936;27;20663;-72
2020/12/08 05:47:27;;;;;;;8.63;7.18;;;6.20;99.90;;;;;;5126218;27;20204;-72
2020/12/08 05:50:00;;;;;;;8.52;7.50;;;6.20;99.90;;;;;;5123659;27;20203;-72
2020/12/08 05:52:31;;;;;;;9.32;7.20;;;6.20;99.90;;;;;;5123835;27;20520;-72
2020/12/08 05:55:06;;;;;;;9.13;7.90;;;6.20;99.90;;;;;;5115204;27;20193;-71
2020/12/08 05:57:33;;;;;;;10.02;8.10;;;6.20;99.90;;;;;;5115649;27;20192;-71
2020/12/08 06:00:00;;;;;;;14.45;8.88;;;6.10;99.90;;;;;;5117204;27;20193;-72
2020/12/08 06:02:28;;;;;;;9.48;7.72;;;6.10;99.90;;;;;;5123449;27;20540;-73
2020/12/08 06:04:54;;;;;;;13.02;9.02;;;6.10;99.90;;;;;;5121546;27;20215;-73
2020/12/08 06:07:27;;;;;;;9.77;7.85;;;6.10;99.90;;;;;;5135039;27;20196;-73
2020/12/08 06:10:07;;;;;;;11.90;8.90;;;6.10;99.90;;;;;;5120196;27;20200;-73
2020/12/08 06:12:34;;;;;;;11.32;7.63;;;6.10;99.90;;;;;;5134535;27;20191;-73
2020/12/08 06:15:01;;;;;;;11.27;8.60;;;6.20;99.90;;;;;;5128052;27;20192;-73
2020/12/08 06:17:27;;;;;;;10.57;8.38;;;6.10;99.90;;;;;;5114122;28;20219;-73
2020/12/08 06:19:53;;;;;;;11.45;8.80;;;6.10;99.90;;;;;;5116566;27;20193;-72
2020/12/08 06:22:20;;;;;;;11.23;8.38;;;6.20;99.90;;;;;;5134576;27;20196;-72
2020/12/08 06:24:53;;;;;;;10.95;8.50;;;6.20;99.90;;;;;;5133937;27;20223;-72
2020/12/08 06:27:21;;;;;;;13.45;9.40;;;6.20;99.90;;;;;;5133025;27;20278;-72
2020/12/08 06:29:54;;;;;;;12.30;9.27;;;6.10;99.90;;;;;;5114657;27;20207;-71
2020/12/08 06:32:29;;;;;;;12.55;8.75;;;6.10;99.90;;;;;;5118810;27;20191;-71
2020/12/08 06:35:06;;;;;;;9.98;8.27;;;6.10;99.90;;;;;;5134387;27;20195;-72
2020/12/08 06:37:33;;;;;;;9.93;8.52;;;6.20;99.90;;;;;;5134040;27;20658;-72
2020/12/08 06:40:07;;;;;;;12.65;9.93;;;6.20;99.90;;;;;;5117976;27;20232;-72
2020/12/08 06:42:34;;;;;;;11.88;9.25;;;6.20;99.90;;;;;;5113278;27;20211;-72
2020/12/08 06:45:08;;;;;;;12.35;10.38;;;6.10;99.90;;;;;;5113623;27;20217;-72
2020/12/08 06:47:35;;;;;;;10.90;9.10;;;6.10;99.90;;;;;;5113396;28;20206;-73
2020/12/08 06:50:04;;;;;;;12.77;9.70;;;6.20;99.90;;;;;;5118012;27;20216;-73
2020/12/08 06:52:30;;;;;;;16.95;9.80;;;6.10;99.90;;;;;;5113396;27;20201;-72
2020/12/08 06:54:58;;;;;;;12.65;9.98;;;6.10;99.90;;;;;;5129527;27;20192;-73
2020/12/08 06:57:25;;;;;;;12.15;9.10;;;6.20;99.90;;;;;;5124868;27;20563;-73
2020/12/08 07:00:09;;;;;;;15.32;11.50;;;6.20;99.90;;;;;;5125065;27;20188;-72
2020/12/08 07:02:50;;;;;;;14.30;10.25;;;6.10;99.90;;;;;;5113619;28;20197;-73
2020/12/08 07:05:22;;;;;;;13.07;10.30;;;6.20;99.90;;;;;;5114898;27;20980;-72
2020/12/08 07:07:49;;;;;;;13.23;10.40;;;6.10;99.90;;;;;;5113231;27;20280;-72
2020/12/08 07:10:17;;;;;;;13.10;10.10;;;6.10;99.90;;;;;;5113245;28;20200;-72
2020/12/08 07:12:44;;;;;;;14.63;10.30;;;6.10;99.90;;;;;;5112940;27;20203;-72
2020/12/08 07:15:19;;;;;;;12.07;10.07;;;6.10;99.90;;;;;;5118076;27;20187;-72
2020/12/08 07:17:54;;;;;;;15.15;10.90;;;6.10;99.90;;;;;;5117207;27;20527;-73
2020/12/08 07:20:21;;;;;;;15.18;10.80;;;6.20;99.90;;;;;;5112681;28;20192;-73
2020/12/08 07:22:48;;;;;;;14.18;11.63;;;6.10;99.90;;;;;;5112670;28;20197;-73
2020/12/08 07:25:16;;;;;;;13.10;10.20;;;6.10;99.90;;;;;;5130253;27;20667;-73
2020/12/08 07:27:45;;;;;;;16.05;11.60;;;6.10;99.90;;;;;;5133297;27;20196;-73
2020/12/08 07:30:13;;;;;;;11.65;9.63;;;6.10;99.90;;;;;;5118431;27;20520;-74
2020/12/08 07:32:39;;;;;;;13.07;11.18;;;6.20;99.90;;;;;;5117549;27;20195;-74
2020/12/08 07:35:07;;;;;;;15.52;11.05;;;6.20;99.90;;;;;;5113790;27;20207;-74
2020/12/08 07:37:37;;;;;;;16.40;11.38;;;6.20;99.90;;;;;;5111321;28;20223;-74
2020/12/08 07:40:08;;;;;;;15.95;10.32;;;6.10;99.90;;;;;;5110813;28;20293;-74
2020/12/08 07:42:36;;;;;;;12.40;9.75;;;6.10;99.90;;;;;;5111849;28;20196;-73
2020/12/08 07:45:07;;;;;;;16.25;11.85;;;6.20;99.90;;;;;;5112274;28;20214;-73
2020/12/08 07:47:33;;;;;;;13.40;10.75;;;6.20;99.90;;;;;;5119722;27;20204;-73
2020/12/08 07:49:59;;;;;;;16.25;10.82;;;6.10;99.90;;;;;;5134692;27;20193;-73
2020/12/08 07:52:26;;;;;;;13.93;10.60;;;6.20;99.90;;;;;;5138800;27;20206;-74
2020/12/08 07:54:52;;;;;;;14.75;10.48;;;6.10;99.90;;;;;;5136003;27;20270;-74
2020/12/08 07:57:19;;;;;;;15.82;11.50;;;6.10;99.90;;;;;;5153474;27;20211;-74
2020/12/08 07:59:45;;;;;;;15.70;11.80;;;6.20;99.90;;;;;;5138316;27;20505;-73
2020/12/08 08:02:11;;;;;;;14.60;11.73;;;6.10;99.90;;;;;;5112184;28;20219;-74
2020/12/08 08:04:37;;;;;;;13.75;10.90;;;6.20;99.90;;;;;;5121476;27;20212;-73
2020/12/08 08:07:04;;;;;;;14.43;11.05;;;6.20;99.90;;;;;;5119698;27;20197;-73
2020/12/08 08:09:32;;;;;;;16.95;10.40;;;6.20;99.90;;;;;;5112428;28;20192;-73
2020/12/08 08:11:58;;;;;;;11.85;9.40;;;6.10;99.90;;;;;;5112223;28;20654;-73
2020/12/08 08:14:24;;;;;;;13.80;10.02;;;6.10;99.90;;;;;;5112448;28;20200;-73
2020/12/08 08:16:51;;;;;;;14.52;10.77;;;6.20;99.90;;;;;;5125840;28;20287;-73
2020/12/08 08:19:17;;;;;;;16.05;11.30;;;6.20;99.90;;;;;;5132701;27;20200;-73
2020/12/08 08:21:44;;;;;;;14.70;11.25;;;6.30;99.90;;;;;;5117899;28;20193;-74
2020/12/08 08:24:10;;;;;;;15.50;11.23;;;6.20;99.90;;;;;;5113360;28;20240;-73
2020/12/08 08:26:40;;;;;;;13.38;9.88;;;6.20;99.90;;;;;;5112228;28;20238;-73
2020/12/08 08:29:07;;;;;;;16.83;10.32;;;6.20;99.90;;;;;;5112178;28;20291;-74
2020/12/08 08:31:33;;;;;;;18.75;13.05;;;6.20;99.90;;;;;;5124068;28;20235;-73
2020/12/08 08:34:00;;;;;;;17.08;13.00;;;6.20;99.90;;;;;;5113424;28;20205;-72
2020/12/08 08:36:26;;;;;;;16.02;12.48;;;6.10;99.90;;;;;;5120617;27;20818;-73
2020/12/08 08:38:52;;;;;;;15.07;11.73;;;6.20;99.90;;;;;;5130349;27;20234;-73
2020/12/08 08:41:19;;;;;;;14.30;10.43;;;6.20;99.90;;;;;;5111525;28;20211;-73
2020/12/08 08:43:46;;;;;;;15.90;10.75;;;6.20;99.90;;;;;;5121928;28;20220;-73
2020/12/08 08:46:12;;;;;;;17.70;12.23;;;6.20;99.90;;;;;;5111920;28;20208;-73
2020/12/08 08:48:39;;;;;;;15.50;11.30;;;6.20;99.90;;;;;;5111544;28;20185;-73
2020/12/08 08:51:05;;;;;;;16.23;11.65;;;6.30;99.90;;;;;;5114277;28;20633;-73
2020/12/08 08:53:31;;;;;;;18.38;12.90;;;6.30;99.90;;;;;;5130494;27;20196;-73
2020/12/08 08:55:57;;;;;;;16.98;12.65;;;6.30;99.90;;;;;;5128541;27;20197;-73
2020/12/08 08:58:24;;;;;;;13.40;10.95;;;6.30;99.90;;;;;;5111660;28;20193;-73
2020/12/08 09:00:51;;;;;;;14.60;10.98;;;6.30;99.90;;;;;;5111742;28;20207;-73
2020/12/08 09:03:17;;;;;;;15.52;10.82;;;6.30;99.90;;;;;;5111331;28;20193;-73
2020/12/08 09:05:43;;;;;;;15.27;10.70;;;6.30;99.90;;;;;;5124212;27;20219;-73
2020/12/08 09:08:09;;;;;;;17.85;13.10;;;6.30;99.90;;;;;;5120828;27;20197;-73
2020/12/08 09:10:36;;;;;;;13.48;10.23;;;6.30;99.90;;;;;;5115394;27;20197;-73
2020/12/08 09:13:02;;;;;;;15.48;11.13;;;6.40;99.90;;;;;;5121784;27;20200;-73
2020/12/08 09:15:28;;;;;;;15.13;10.57;;;6.30;99.90;;;;;;5123815;27;20193;-74
2020/12/08 09:17:55;;;;;;;16.42;11.70;;;6.30;99.90;;;;;;5123456;27;20634;-74
2020/12/08 09:20:22;;;;;;;15.07;11.57;;;6.30;99.90;;;;;;5137235;27;20196;-73
2020/12/08 09:22:48;;;;;;;16.63;11.65;;;6.30;99.90;;;;;;5138781;27;20621;-73
2020/12/08 09:25:15;;;;;;;23.08;13.25;;;6.30;99.90;;;;;;5128647;27;20219;-73
2020/12/08 09:27:41;;;;;;;16.20;11.25;;;6.40;99.90;;;;;;5148556;27;20203;-73
2020/12/08 09:30:08;;;;;;;15.23;11.00;;;6.30;99.90;;;;;;5134277;27;20196;-73
2020/12/08 09:32:34;;;;;;;13.35;10.48;;;6.40;99.90;;;;;;5127001;27;20203;-73
2020/12/08 09:35:01;;;;;;;14.85;11.80;;;6.40;99.90;;;;;;5122561;27;20641;-73
2020/12/08 09:37:27;;;;;;;13.57;10.13;;;6.50;99.90;;;;;;5127632;27;20203;-74
2020/12/08 09:39:54;;;;;;;12.90;9.35;;;6.40;99.90;;;;;;5118614;27;20599;-73
2020/12/08 09:42:21;;;;;;;14.55;12.52;;;6.40;99.90;;;;;;5114987;27;20199;-74
2020/12/08 09:44:48;;;;;;;13.77;10.23;;;6.40;99.90;;;;;;5114530;27;20215;-75
2020/12/08 09:47:16;;;;;;;14.30;11.55;;;6.50;99.90;;;;;;5114513;28;20232;-74
2020/12/08 09:49:43;;;;;;;13.60;10.27;;;6.50;99.90;;;;;;5132810;27;20203;-74
2020/12/08 09:52:10;;;;;;;15.32;11.68;;;6.50;99.90;;;;;;5121397;27;20661;-75
2020/12/08 09:54:37;;;;;;;13.70;9.98;;;6.50;99.90;;;;;;5135428;27;20193;-74
2020/12/08 09:57:03;;;;;;;15.65;11.77;;;6.50;99.90;;;;;;5120821;27;20208;-74
2020/12/08 09:59:29;;;;;;;11.93;10.23;;;6.50;99.90;;;;;;5114752;27;20620;-75
2020/12/08 10:01:57;;;;;;;15.15;11.00;;;6.50;99.90;;;;;;5116380;27;20211;-74
2020/12/08 10:04:23;;;;;;;16.20;11.48;;;6.50;99.90;;;;;;5119657;27;20293;-74
2020/12/08 10:06:49;;;;;;;14.57;11.40;;;6.50;99.90;;;;;;5121347;27;20209;-75
2020/12/08 10:09:21;;;;;;;14.43;10.38;;;6.50;99.90;;;;;;5114606;28;20200;-75
2020/12/08 10:11:47;;;;;;;13.68;10.15;;;6.50;99.90;;;;;;5119724;27;20189;-75
2020/12/08 10:14:13;;;;;;;14.07;11.32;;;6.60;99.90;;;;;;5113890;28;20185;-75
2020/12/08 10:16:39;;;;;;;13.45;10.23;;;6.60;99.90;;;;;;5122361;27;20200;-74
2020/12/08 10:19:06;;;;;;;10.57;9.15;;;6.50;99.90;;;;;;5126484;27;20843;-74
2020/12/08 10:21:32;;;;;;;13.35;9.20;;;6.50;99.90;;;;;;5113580;28;20560;-75
2020/12/08 10:23:58;;;;;;;13.13;10.40;;;6.50;99.90;;;;;;5113715;28;20212;-74
2020/12/08 10:26:25;;;;;;;12.80;10.57;;;6.50;99.90;;;;;;5114140;28;20204;-74
2020/12/08 10:28:51;;;;;;;12.45;8.98;;;6.60;99.90;;;;;;5113270;28;20207;-74
2020/12/08 10:31:19;;;;;;;13.85;10.40;;;6.60;99.90;;;;;;5117111;27;20192;-75
2020/12/08 10:33:46;;;;;;;12.18;10.27;;;6.60;99.90;;;;;;5130877;27;20199;-74
2020/12/08 10:36:13;;;;;;;12.27;9.27;;;6.60;99.90;;;;;;5134423;27;20223;-75
2020/12/08 10:38:39;;;;;;;12.50;10.02;;;6.60;99.90;;;;;;5121124;27;20228;-74
2020/12/08 10:41:06;;;;;;;14.07;11.02;;;6.60;99.90;;;;;;5134152;27;20192;-74
2020/12/08 10:43:33;;;;;;;13.95;9.85;;;6.60;99.90;;;;;;5130474;27;20196;-74
2020/12/08 10:45:59;;;;;;;13.15;9.98;;;6.60;99.90;;;;;;5114154;27;20197;-74
2020/12/08 10:48:26;;;;;;;13.55;11.15;;;6.60;99.90;;;;;;5120608;27;20193;-74
2020/12/08 10:50:52;;;;;;;13.75;9.95;;;6.70;99.90;;;;;;5116252;27;20283;-74
2020/12/08 10:53:18;;;;;;;14.10;10.00;;;6.60;99.90;;;;;;5116776;27;20200;-74
2020/12/08 10:55:44;;;;;;;12.98;9.38;;;6.70;99.90;;;;;;5121927;27;20207;-74
2020/12/08 10:58:11;;;;;;;13.43;10.48;;;6.60;99.90;;;;;;5122578;27;20296;-75
2020/12/08 11:00:38;;;;;;;14.18;9.60;;;6.70;99.90;;;;;;5115300;27;20248;-75
2020/12/08 11:03:04;;;;;;;13.82;8.30;;;6.60;99.90;;;;;;5117163;27;20647;-75
2020/12/08 11:05:30;;;;;;;11.20;8.85;;;6.70;99.90;;;;;;5122861;27;20216;-74
2020/12/08 11:07:56;;;;;;;12.15;10.48;;;6.70;99.90;;;;;;5119283;27;20224;-74
2020/12/08 11:10:23;;;;;;;12.35;9.40;;;6.70;99.90;;;;;;5120535;27;20208;-75
2020/12/08 11:12:49;;;;;;;11.50;9.25;;;6.70;99.90;;;;;;5121355;27;20193;-74
2020/12/08 11:15:15;;;;;;;10.23;9.07;;;6.70;99.90;;;;;;5118156;27;20674;-77
2020/12/08 11:17:42;;;;;;;14.38;8.95;;;6.70;99.90;;;;;;5112666;27;20196;-78
2020/12/08 11:20:09;;;;;;;11.45;8.98;;;6.70;99.90;;;;;;5114202;27;20265;-80
2020/12/08 11:22:36;;;;;;;12.98;8.85;;;6.70;99.90;;;;;;5116062;27;20201;-77
2020/12/08 11:25:03;;;;;;;12.60;9.07;;;6.70;99.90;;;;;;5115159;27;20970;-77
2020/12/08 11:27:29;;;;;;;13.35;7.63;;;6.70;99.90;;;;;;5118143;27;20200;-80
2020/12/08 11:29:56;;;;;;;11.93;9.50;;;6.70;99.90;;;;;;5120858;27;20222;-80
2020/12/08 11:32:22;;;;;;;12.80;9.15;;;6.70;99.90;;;;;;5112689;27;20200;-76
2020/12/08 11:34:50;;;;;;;9.75;7.53;;;6.70;99.90;;;;;;5128272;27;20196;-77
2020/12/08 11:37:16;;;;;;;11.90;8.15;;;6.70;99.90;;;;;;5119536;27;20241;-77
2020/12/08 11:39:43;;;;;;;9.50;7.70;;;6.70;99.90;;;;;;5112670;27;20224;-78
2020/12/08 11:42:12;;;;;;;11.32;8.60;;;6.80;99.90;;;;;;5123847;27;20200;-73
2020/12/08 11:44:38;;;;;;;11.27;8.77;;;6.80;99.90;;;;;;5113620;27;20308;-74
2020/12/08 11:47:05;;;;;;;11.52;9.00;;;6.80;99.90;;;;;;5120980;27;20558;-74
2020/12/08 11:49:32;;;;;;;13.98;8.55;;;6.80;99.90;;;;;;5119344;27;20208;-74
2020/12/08 11:51:59;;;;;;;11.05;8.40;;;6.80;99.90;;;;;;5116826;27;20307;-74
2020/12/08 11:54:26;;;;;;;11.13;8.73;;;6.80;99.90;;;;;;5112727;28;20238;-74
2020/12/08 11:56:52;;;;;;;11.05;8.38;;;6.80;99.90;;;;;;5126614;27;20203;-74
2020/12/08 11:59:18;;;;;;;9.68;8.45;;;6.80;99.90;;;;;;5126696;27;20241;-74
2020/12/08 12:01:45;;;;;;;9.55;7.70;;;6.80;99.90;;;;;;5126529;27;20193;-75
2020/12/08 12:04:11;;;;;;;8.48;7.57;;;6.90;99.90;;;;;;5123479;28;20220;-74
2020/12/08 12:06:37;;;;;;;9.40;8.40;;;6.90;99.90;;;;;;5132313;27;20216;-73
2020/12/08 12:09:04;;;;;;;9.23;7.90;;;6.90;99.90;;;;;;5128832;27;20192;-74
2020/12/08 12:11:31;;;;;;;8.20;6.72;;;6.90;99.90;;;;;;5120853;27;20191;-73
2020/12/08 12:13:57;;;;;;;9.02;7.05;;;6.90;99.90;;;;;;5119911;27;20193;-73
2020/12/08 12:16:23;;;;;;;8.95;7.10;;;6.90;99.90;;;;;;5130004;28;20639;-73
2020/12/08 12:18:49;;;;;;;8.73;6.63;;;6.90;99.90;;;;;;5118957;27;20204;-72
2020/12/08 12:21:16;;;;;;;11.05;7.88;;;6.90;99.90;;;;;;5117919;28;20202;-73
2020/12/08 12:23:42;;;;;;;8.50;6.88;;;6.90;99.90;;;;;;5119379;27;20185;-74
2020/12/08 12:26:09;;;;;;;10.82;8.40;;;6.90;99.90;;;;;;5114063;28;20200;-74
2020/12/08 12:28:36;;;;;;;6.80;6.10;;;6.90;99.90;;;;;;5122718;28;20196;-74
2020/12/08 12:31:07;;;;;;;8.77;7.25;;;7.00;99.90;;;;;;5127189;27;20192;-72
2020/12/08 12:33:34;;;;;;;10.30;7.15;;;6.90;99.90;;;;;;5116612;27;20277;-73
2020/12/08 12:36:00;;;;;;;8.80;7.32;;;6.90;99.90;;;;;;5120295;28;20196;-75
2020/12/08 12:38:26;;;;;;;8.50;6.60;;;6.90;99.90;;;;;;5131542;27;20223;-73
2020/12/08 12:40:53;;;;;;;9.18;6.68;;;7.00;99.90;;;;;;5120834;27;20201;-75
2020/12/08 12:43:20;;;;;;;8.10;6.22;;;6.90;99.90;;;;;;5115567;28;20201;-75
2020/12/08 12:45:46;;;;;;;7.22;6.47;;;7.00;99.90;;;;;;5115930;27;20212;-73
2020/12/08 12:48:12;;;;;;;8.18;6.93;;;7.00;99.90;;;;;;5123884;27;20192;-74
2020/12/08 12:50:40;;;;;;;7.57;5.78;;;7.00;99.90;;;;;;5127667;27;20200;-74